createdAt,value
2023-06-10T00:00:08.588Z,24.46
2023-06-10T00:02:44.340Z,24.16
2023-06-10T00:05:12.546Z,24.59
2023-06-10T00:07:42.046Z,24.98
2023-06-10T00:10:09.422Z,24.45
2023-06-10T00:12:38.985Z,24.37
2023-06-10T00:15:08.253Z,25.57
2023-06-10T00:17:39.911Z,26.30
2023-06-10T00:20:24.416Z,27.10
2023-06-10T00:22:52.343Z,27.75
2023-06-10T00:25:19.899Z,28.01
2023-06-10T00:27:47.347Z,28.04
2023-06-10T00:30:15.283Z,27.08
2023-06-10T00:32:42.886Z,24.89
2023-06-10T00:35:11.032Z,23.70
2023-06-10T00:37:39.178Z,23.92
2023-06-10T00:42:48.232Z,21.97
2023-06-10T00:45:16.329Z,22.04
2023-06-10T00:47:46.746Z,22.98
2023-06-10T00:50:19.049Z,24.49
2023-06-10T00:52:49.307Z,26.55
2023-06-10T00:55:17.772Z,28.14
2023-06-10T00:57:49.607Z,29.65
2023-06-10T01:00:17.980Z,30.73
2023-06-10T01:02:46.637Z,31.35
2023-06-10T01:05:14.993Z,31.98
2023-06-10T01:07:57.076Z,32.17
2023-06-10T01:10:32.839Z,32.32
2023-06-10T01:13:03.714Z,31.23
2023-06-10T01:15:35.810Z,29.16
2023-06-10T01:18:16.143Z,27.66
2023-06-10T01:20:44.897Z,26.17
2023-06-10T01:23:12.747Z,25.63
2023-06-10T01:25:45.085Z,24.30
2023-06-10T01:28:32.533Z,22.61
2023-06-10T01:31:35.389Z,23.06
2023-06-10T01:34:03.313Z,21.79
2023-06-10T01:36:30.748Z,20.40
2023-06-10T01:38:58.448Z,18.86
2023-06-10T01:41:26.799Z,17.64
2023-06-10T01:43:55.440Z,17.67
2023-06-10T01:46:23.559Z,17.69
2023-06-10T01:48:51.308Z,16.61
2023-06-10T01:51:19.055Z,16.24
2023-06-10T01:53:46.441Z,16.53
2023-06-10T01:56:20.590Z,16.53
2023-06-10T01:58:48.302Z,16.07
2023-06-10T02:01:16.254Z,16.27
2023-06-10T02:03:44.414Z,15.50
2023-06-10T02:06:12.415Z,15.63
2023-06-10T02:08:40.282Z,15.50
2023-06-10T02:11:08.581Z,15.93
2023-06-10T02:13:36.795Z,15.85
2023-06-10T02:16:04.493Z,15.60
2023-06-10T02:18:32.745Z,14.67
2023-06-10T02:21:04.395Z,13.38
2023-06-10T02:23:31.759Z,12.73
2023-06-10T02:25:59.103Z,12.88
2023-06-10T02:28:26.903Z,12.52
2023-06-10T02:30:54.672Z,11.21
2023-06-10T02:33:23.215Z,10.29
2023-06-10T02:35:51.636Z,10.26
2023-06-10T02:38:21.198Z,9.51
2023-06-10T02:40:49.945Z,9.97
2023-06-10T02:43:18.167Z,10.12
2023-06-10T02:45:47.544Z,9.46
2023-06-10T02:48:16.964Z,9.64
2023-06-10T02:50:44.720Z,9.89
2023-06-10T02:53:28.921Z,10.97
2023-06-10T02:56:04.876Z,10.93
2023-06-10T02:58:33.273Z,11.87
2023-06-10T03:01:02.192Z,12.37
2023-06-10T03:03:37.838Z,13.07
2023-06-10T03:06:11.610Z,13.08
2023-06-10T03:08:40.066Z,12.49
2023-06-10T03:11:11.994Z,11.48
2023-06-10T03:13:43.161Z,11.29
2023-06-10T03:16:14.183Z,11.13
2023-06-10T03:18:44.780Z,10.63
2023-06-10T03:21:12.624Z,11.14
2023-06-10T03:23:41.441Z,11.41
2023-06-10T03:26:11.900Z,11.59
2023-06-10T03:28:43.556Z,11.08
2023-06-10T03:31:17.620Z,11.87
2023-06-10T03:33:49.831Z,12.57
2023-06-10T03:36:20.720Z,12.75
2023-06-10T03:38:52.611Z,13.57
2023-06-10T03:41:25.676Z,13.92
2023-06-10T03:43:55.786Z,14.62
2023-06-10T03:49:44.474Z,13.20
2023-06-10T03:52:14.621Z,13.87
2023-06-10T03:54:51.024Z,14.80
2023-06-10T03:57:19.976Z,16.00
2023-06-10T03:59:47.465Z,17.34
2023-06-10T04:02:14.884Z,17.84
2023-06-10T04:04:43.724Z,17.78
2023-06-10T04:07:11.193Z,18.11
2023-06-10T04:09:38.527Z,18.36
2023-06-10T04:12:11.507Z,20.03
2023-06-10T04:14:39.182Z,20.87
2023-06-10T04:17:10.358Z,22.36
2023-06-10T04:19:39.137Z,23.85
2023-06-10T04:22:08.145Z,25.97
2023-06-10T04:24:36.571Z,26.66
2023-06-10T04:27:04.917Z,26.65
2023-06-10T04:29:36.035Z,26.63
2023-06-10T04:32:03.967Z,26.55
2023-06-10T04:34:37.250Z,27.60
2023-06-10T04:37:06.706Z,27.58
2023-06-10T04:39:39.084Z,28.23
2023-06-10T04:42:09.461Z,29.10
2023-06-10T04:44:37.608Z,29.87
2023-06-10T04:47:05.759Z,29.69
2023-06-10T04:49:34.285Z,30.19
2023-06-10T04:52:05.752Z,31.07
2023-06-10T04:54:37.459Z,30.32
2023-06-10T04:57:05.418Z,31.54
2023-06-10T04:59:33.404Z,32.19
2023-06-10T05:02:00.859Z,33.02
2023-06-10T05:04:29.003Z,32.77
2023-06-10T05:06:56.675Z,32.49
2023-06-10T05:09:24.668Z,32.41
2023-06-10T05:11:54.597Z,31.86
2023-06-10T05:14:25.430Z,32.24
2023-06-10T05:16:54.057Z,32.04
2023-06-10T05:19:22.359Z,32.38
2023-06-10T05:21:49.777Z,32.61
2023-06-10T05:24:17.835Z,33.28
2023-06-10T05:26:45.472Z,32.58
2023-06-10T05:29:13.327Z,31.02
2023-06-10T05:31:40.698Z,29.62
2023-06-10T05:34:08.977Z,29.60
2023-06-10T05:36:38.769Z,28.85
2023-06-10T05:39:06.258Z,28.33
2023-06-10T05:41:39.137Z,27.68
2023-06-10T05:44:06.905Z,27.56
2023-06-10T05:46:39.306Z,27.49
2023-06-10T05:49:08.001Z,28.12
2023-06-10T05:51:37.452Z,28.59
2023-06-10T05:54:16.368Z,28.45
2023-06-10T06:00:08.176Z,28.23
2023-06-10T06:03:39.487Z,28.56
2023-06-10T06:06:02.961Z,28.38
2023-06-10T06:14:34.231Z,27.04
2023-06-10T06:17:02.125Z,26.97
2023-06-10T06:32:17.143Z,29.80
2023-06-10T06:46:42.368Z,33.39
2023-06-10T06:49:10.562Z,33.66
2023-06-10T06:51:38.385Z,34.01
2023-06-10T07:09:51.280Z,35.24
2023-06-10T07:12:25.347Z,35.64
2023-06-10T07:18:16.930Z,34.57
2023-06-10T07:20:44.486Z,34.00
2023-06-10T07:23:14.852Z,34.04
2023-06-10T07:25:43.087Z,34.29
2023-06-10T07:28:10.430Z,33.81
2023-06-10T07:30:37.994Z,33.92
2023-06-10T07:33:07.236Z,34.46
2023-06-10T07:35:34.769Z,34.25
2023-06-10T07:38:02.453Z,33.38
2023-06-10T07:40:32.810Z,33.31
2023-06-10T07:43:02.023Z,34.05
2023-06-10T07:45:29.825Z,34.88
2023-06-10T07:47:57.600Z,35.80
2023-06-10T07:50:27.096Z,36.82
2023-06-10T07:52:55.362Z,38.06
2023-06-10T07:55:23.042Z,38.49
2023-06-10T07:57:50.555Z,39.39
2023-06-10T08:00:19.039Z,39.18
2023-06-10T08:02:46.617Z,39.88
2023-06-10T08:05:14.540Z,39.58
2023-06-10T08:07:42.037Z,39.52
2023-06-10T08:10:11.199Z,39.43
2023-06-10T08:12:38.614Z,39.27
2023-06-10T08:15:07.058Z,39.39
2023-06-10T08:17:35.309Z,39.99
2023-06-10T08:20:02.967Z,39.94
2023-06-10T08:22:30.836Z,39.90
2023-06-10T08:24:58.488Z,39.75
2023-06-10T08:27:28.028Z,40.19
2023-06-10T08:29:55.696Z,40.49
2023-06-10T08:32:23.732Z,40.42
2023-06-10T08:34:51.620Z,41.00
2023-06-10T08:37:19.413Z,41.49
2023-06-10T08:39:46.852Z,42.06
2023-06-10T08:42:36.198Z,42.26
2023-06-10T08:45:04.193Z,42.52
2023-06-10T08:47:36.780Z,43.10
2023-06-10T08:50:12.622Z,43.57
2023-06-10T08:52:45.163Z,43.75
2023-06-10T08:55:17.019Z,43.71
2023-06-10T08:57:45.611Z,44.39
2023-06-10T09:00:14.537Z,44.97
2023-06-10T09:02:42.638Z,45.10
2023-06-10T09:05:10.780Z,45.35
2023-06-10T09:07:38.716Z,44.96
2023-06-10T09:10:09.975Z,45.10
2023-06-10T09:12:42.866Z,45.71
2023-06-10T09:15:13.297Z,46.06
2023-06-10T09:17:41.624Z,46.46
2023-06-10T09:20:10.895Z,47.04
2023-06-10T09:22:40.276Z,47.54
2023-06-10T09:25:09.882Z,47.43
2023-06-10T09:27:51.408Z,47.71
2023-06-10T09:30:29.693Z,47.82
2023-06-10T09:32:58.874Z,48.01
2023-06-10T09:35:27.497Z,48.60
2023-06-10T09:37:58.524Z,48.94
2023-06-10T09:40:27.722Z,49.19
2023-06-10T09:42:59.841Z,49.20
2023-06-10T09:45:32.802Z,49.84
2023-06-10T09:48:00.689Z,49.66
2023-06-10T09:50:28.012Z,49.70
2023-06-10T09:52:55.304Z,50.18
2023-06-10T09:55:22.993Z,50.42
2023-06-10T09:57:51.191Z,51.13
2023-06-10T10:00:19.805Z,51.77
2023-06-10T10:02:49.381Z,52.06
2023-06-10T10:05:18.072Z,52.01
2023-06-10T10:07:45.901Z,52.91
2023-06-10T10:10:14.474Z,53.30
2023-06-10T10:12:42.711Z,53.61
2023-06-10T10:15:11.561Z,53.57
2023-06-10T10:17:46.516Z,53.62
2023-06-10T10:20:15.892Z,53.96
2023-06-10T10:22:44.514Z,53.58
2023-06-10T10:25:19.128Z,53.53
2023-06-10T10:27:52.287Z,53.00
2023-06-10T10:30:21.556Z,53.02
2023-06-10T10:33:02.479Z,52.96
2023-06-10T10:35:30.056Z,52.84
2023-06-10T10:37:57.392Z,52.71
2023-06-10T10:40:25.543Z,52.36
2023-06-10T10:42:53.046Z,52.15
2023-06-10T10:45:21.834Z,52.08
2023-06-10T10:47:54.546Z,51.63
2023-06-10T10:50:22.286Z,51.74
2023-06-10T10:52:53.901Z,51.77
2023-06-10T10:55:22.109Z,52.17
2023-06-10T10:57:58.903Z,51.98
2023-06-10T11:00:31.205Z,52.10
2023-06-10T11:03:11.024Z,52.17
2023-06-10T11:05:42.346Z,51.87
2023-06-10T11:08:10.705Z,52.30
2023-06-10T11:10:42.527Z,52.88
2023-06-10T11:13:14.071Z,52.95
2023-06-10T11:15:47.397Z,53.14
2023-06-10T11:18:16.927Z,53.12
2023-06-10T11:20:55.696Z,53.21
2023-06-10T11:23:34.867Z,53.21
2023-06-10T11:26:18.083Z,53.35
2023-06-10T11:28:48.833Z,54.03
2023-06-10T11:31:26.195Z,53.89
2023-06-10T11:33:57.742Z,53.83
2023-06-10T11:36:25.624Z,54.57
2023-06-10T11:38:56.578Z,54.65
2023-06-10T11:41:28.266Z,55.14
2023-06-10T11:44:00.861Z,55.47
2023-06-10T11:46:28.805Z,55.29
2023-06-10T11:48:57.445Z,55.55
2023-06-10T11:51:29.718Z,55.68
2023-06-10T11:53:57.593Z,55.83
2023-06-10T11:56:27.507Z,55.47
2023-06-10T11:58:56.522Z,55.72
2023-06-10T12:01:28.991Z,55.41
2023-06-10T12:04:01.134Z,55.54
2023-06-10T12:06:28.785Z,55.50
2023-06-10T12:09:04.563Z,55.88
2023-06-10T12:11:32.137Z,56.00
2023-06-10T12:13:59.746Z,56.35
2023-06-10T12:16:27.913Z,55.93
2023-06-10T12:19:02.234Z,55.99
2023-06-10T12:21:30.303Z,56.21
2023-06-10T12:24:02.173Z,56.56
2023-06-10T12:26:40.156Z,56.55
2023-06-10T12:29:21.615Z,56.57
2023-06-10T12:31:56.158Z,56.92
2023-06-10T12:34:50.060Z,56.65
2023-06-10T12:37:17.781Z,56.82
2023-06-10T12:39:52.802Z,56.83
2023-06-10T12:42:23.178Z,56.66
2023-06-10T12:44:54.309Z,56.52
2023-06-10T12:47:22.830Z,56.35
2023-06-10T12:49:52.019Z,55.72
2023-06-10T12:52:19.321Z,55.56
2023-06-10T12:54:46.665Z,55.74
2023-06-10T12:57:14.174Z,55.89
2023-06-10T12:59:43.628Z,55.63
2023-06-10T13:02:11.707Z,55.69
2023-06-10T13:04:40.571Z,55.43
2023-06-10T13:07:08.616Z,55.31
2023-06-10T13:10:05.549Z,55.26
2023-06-10T13:12:46.074Z,55.38
2023-06-10T13:15:18.270Z,55.08
2023-06-10T13:17:50.378Z,55.02
2023-06-10T13:20:18.812Z,55.14
2023-06-10T13:22:46.083Z,54.61
2023-06-10T13:25:14.238Z,54.46
2023-06-10T13:27:43.399Z,54.08
2023-06-10T13:30:12.395Z,54.16
2023-06-10T13:32:40.135Z,53.65
2023-06-10T13:35:09.111Z,53.78
2023-06-10T13:37:38.031Z,53.34
2023-06-10T13:40:06.244Z,53.28
2023-06-10T13:42:33.710Z,53.37
2023-06-10T13:45:01.322Z,52.86
2023-06-10T13:47:29.157Z,53.13
2023-06-10T13:49:56.597Z,52.51
2023-06-10T13:52:24.337Z,52.50
2023-06-10T13:54:52.035Z,52.75
2023-06-10T13:57:19.549Z,52.89
2023-06-10T13:59:47.317Z,53.03
2023-06-10T14:02:14.933Z,53.29
2023-06-10T14:04:42.538Z,53.42
2023-06-10T14:07:11.126Z,54.14
2023-06-10T14:09:38.882Z,54.05
2023-06-10T14:12:07.088Z,54.13
2023-06-10T14:14:34.946Z,54.31
2023-06-10T14:17:04.608Z,54.50
2023-06-10T14:19:32.458Z,54.80
2023-06-10T14:22:00.505Z,55.24
2023-06-10T14:24:28.217Z,55.30
2023-06-10T14:26:56.268Z,55.17
2023-06-10T14:29:24.061Z,55.38
2023-06-10T14:31:52.182Z,55.48
2023-06-10T14:34:20.497Z,55.51
2023-06-10T14:36:48.281Z,55.24
2023-06-10T14:39:16.603Z,55.00
2023-06-10T14:41:44.245Z,55.13
2023-06-10T14:44:12.215Z,55.21
2023-06-10T14:46:40.038Z,55.97
2023-06-10T14:49:07.743Z,57.47
2023-06-10T14:51:37.026Z,59.16
2023-06-10T14:54:04.627Z,60.45
2023-06-10T14:56:32.333Z,60.62
2023-06-10T14:59:00.187Z,60.61
2023-06-10T15:01:27.700Z,61.85
2023-06-10T15:03:55.408Z,63.37
2023-06-10T15:06:24.027Z,63.95
2023-06-10T15:08:52.733Z,63.60
2023-06-10T15:11:21.105Z,64.50
2023-06-10T15:13:48.822Z,66.33
2023-06-10T15:16:17.167Z,66.88
2023-06-10T15:18:45.109Z,67.76
2023-06-10T15:21:13.354Z,68.45
2023-06-10T15:23:40.898Z,68.99
2023-06-10T15:26:08.533Z,69.42
2023-06-10T15:28:36.781Z,69.38
2023-06-10T15:31:04.279Z,69.79
2023-06-10T15:33:31.719Z,68.05
2023-06-10T15:35:59.481Z,68.88
2023-06-10T15:38:27.079Z,69.14
2023-06-10T15:40:55.226Z,70.55
2023-06-10T15:43:22.991Z,70.43
2023-06-10T15:45:50.706Z,69.89
2023-06-10T15:48:18.369Z,69.97
2023-06-10T15:50:46.089Z,71.04
2023-06-10T15:53:13.475Z,71.84
2023-06-10T15:55:41.362Z,71.75
2023-06-10T15:58:08.878Z,70.37
2023-06-10T16:00:36.638Z,71.52
2023-06-10T16:03:04.556Z,72.87
2023-06-10T16:05:32.007Z,73.01
2023-06-10T16:08:02.036Z,73.24
2023-06-10T16:10:30.893Z,72.72
2023-06-10T16:12:58.609Z,72.75
2023-06-10T16:15:26.181Z,72.62
2023-06-10T16:17:53.951Z,72.46
2023-06-10T16:20:21.438Z,72.82
2023-06-10T16:22:49.004Z,73.01
2023-06-10T16:25:16.901Z,73.16
2023-06-10T16:27:44.095Z,73.04
2023-06-10T16:30:14.303Z,72.37
2023-06-10T16:32:41.923Z,72.64
2023-06-10T16:35:10.291Z,72.55
2023-06-10T16:37:37.894Z,72.67
2023-06-10T16:40:05.797Z,72.78
2023-06-10T16:42:33.876Z,73.19
2023-06-10T16:45:01.993Z,73.28
2023-06-10T16:47:29.622Z,73.70
2023-06-10T16:49:57.349Z,73.21
2023-06-10T16:52:25.110Z,73.51
2023-06-10T16:54:52.894Z,73.53
2023-06-10T16:57:21.064Z,73.25
2023-06-10T16:59:48.417Z,73.47
2023-06-10T17:02:15.707Z,73.35
2023-06-10T17:04:43.198Z,73.20
2023-06-10T17:07:10.818Z,73.30
2023-06-10T17:09:38.693Z,73.73
2023-06-10T17:12:06.634Z,73.52
2023-06-10T17:14:34.450Z,72.80
2023-06-10T17:17:01.925Z,73.12
2023-06-10T17:19:30.339Z,72.69
2023-06-10T17:21:58.823Z,72.47
2023-06-10T17:24:28.021Z,72.78
2023-06-10T17:26:55.783Z,71.83
2023-06-10T17:29:23.240Z,72.06
2023-06-10T17:31:50.696Z,71.69
2023-06-10T17:34:19.574Z,72.10
2023-06-10T17:36:46.945Z,71.70
2023-06-10T17:39:14.411Z,71.53
2023-06-10T17:41:42.182Z,71.09
2023-06-10T17:44:09.950Z,70.01
2023-06-10T17:46:37.649Z,69.96
2023-06-10T17:49:05.046Z,69.54
2023-06-10T17:51:32.437Z,69.95
2023-06-10T17:53:59.689Z,70.21
2023-06-10T17:56:27.351Z,70.32
2023-06-10T17:58:54.728Z,71.27
2023-06-10T18:01:22.128Z,71.09
2023-06-10T18:03:49.764Z,70.17
2023-06-10T18:06:17.506Z,69.81
2023-06-10T18:08:45.013Z,70.23
2023-06-10T18:11:12.551Z,69.66
2023-06-10T18:13:40.148Z,68.83
2023-06-10T18:16:07.413Z,69.24
2023-06-10T18:18:35.404Z,68.38
2023-06-10T18:21:03.347Z,65.25
2023-06-10T18:23:30.761Z,66.71
2023-06-10T18:25:58.343Z,66.88
2023-06-10T18:28:30.645Z,66.91
2023-06-10T18:30:58.573Z,68.67
2023-06-10T18:33:28.583Z,69.21
2023-06-10T18:35:57.147Z,68.88
2023-06-10T18:38:25.096Z,69.74
2023-06-10T18:41:06.231Z,70.19
2023-06-10T18:43:34.456Z,69.79
2023-06-10T18:46:03.668Z,70.75
2023-06-10T18:48:36.653Z,70.87
2023-06-10T18:51:04.500Z,71.26
2023-06-10T18:53:32.477Z,71.02
2023-06-10T18:56:08.614Z,71.21
2023-06-10T18:58:37.522Z,72.40
2023-06-10T19:01:07.986Z,71.91
2023-06-10T19:03:36.703Z,72.48
2023-06-10T19:06:04.953Z,73.06
2023-06-10T19:08:33.922Z,73.64
2023-06-10T19:13:50.483Z,73.55
2023-06-10T19:16:23.475Z,73.54
2023-06-10T19:18:58.812Z,73.92
2023-06-10T19:21:26.422Z,73.51
2023-06-10T19:23:53.718Z,73.50
2023-06-10T19:26:21.877Z,74.06
2023-06-10T19:28:49.723Z,73.47
2023-06-10T19:31:17.937Z,73.65
2023-06-10T19:33:45.505Z,74.07
2023-06-10T19:36:13.502Z,74.33
2023-06-10T19:38:41.771Z,75.65
2023-06-10T19:41:09.278Z,76.35
2023-06-10T19:43:38.054Z,75.87
2023-06-10T19:46:05.506Z,76.12
2023-06-10T19:48:32.785Z,75.20
2023-06-10T19:51:00.291Z,75.54
2023-06-10T19:53:27.963Z,75.45
2023-06-10T19:55:55.293Z,75.35
2023-06-10T19:58:27.708Z,75.46
2023-06-10T20:00:57.435Z,75.16
2023-06-10T20:03:26.840Z,75.49
2023-06-10T20:05:55.846Z,75.92
2023-06-10T20:08:23.464Z,75.76
2023-06-10T20:10:51.694Z,75.84
2023-06-10T20:13:20.434Z,76.50
2023-06-10T20:15:48.188Z,76.87
2023-06-10T20:18:15.915Z,77.09
2023-06-10T20:20:43.549Z,77.39
2023-06-10T20:23:10.782Z,77.58
2023-06-10T20:25:40.040Z,76.62
2023-06-10T20:28:18.165Z,77.23
2023-06-10T20:30:46.080Z,76.67
2023-06-10T20:33:13.729Z,77.46
2023-06-10T20:35:44.619Z,77.89
2023-06-10T20:38:12.316Z,78.08
2023-06-10T20:40:41.628Z,78.67
2023-06-10T20:43:09.385Z,77.65
2023-06-10T20:45:38.596Z,77.04
2023-06-10T20:48:07.124Z,76.87
2023-06-10T20:50:35.576Z,76.63
2023-06-10T20:53:04.048Z,75.94
2023-06-10T20:55:31.800Z,75.87
2023-06-10T20:57:59.284Z,75.72
2023-06-10T21:00:27.069Z,75.21
2023-06-10T21:02:55.242Z,74.46
2023-06-10T21:05:23.104Z,74.79
2023-06-10T21:07:51.299Z,74.20
2023-06-10T21:10:22.822Z,73.88
2023-06-10T21:12:50.713Z,73.48
2023-06-10T21:15:18.754Z,73.89
2023-06-10T21:17:46.344Z,73.43
2023-06-10T21:20:16.182Z,73.75
2023-06-10T21:22:45.905Z,74.13
2023-06-10T21:25:15.721Z,73.49
2023-06-10T21:27:45.900Z,73.37
2023-06-10T21:30:13.637Z,72.81
2023-06-10T21:32:41.573Z,72.40
2023-06-10T21:35:10.083Z,71.83
2023-06-10T21:37:41.025Z,71.77
2023-06-10T21:40:10.801Z,71.63
2023-06-10T21:42:38.770Z,71.38
2023-06-10T21:45:06.813Z,71.61
2023-06-10T21:47:34.616Z,71.39
2023-06-10T21:50:02.199Z,70.98
2023-06-10T21:52:33.864Z,71.31
2023-06-10T21:55:03.109Z,70.79
2023-06-10T21:57:31.764Z,70.71
2023-06-10T21:59:59.599Z,70.53
2023-06-10T22:02:28.552Z,71.45
2023-06-10T22:04:56.344Z,71.46
2023-06-10T22:07:26.752Z,71.37
2023-06-10T22:09:54.552Z,71.21
2023-06-10T22:12:22.988Z,72.63
2023-06-10T22:14:50.690Z,72.41
2023-06-10T22:17:18.388Z,73.06
2023-06-10T22:19:46.538Z,72.98
2023-06-10T22:22:14.519Z,73.57
2023-06-10T22:24:42.365Z,74.64
2023-06-10T22:27:10.089Z,75.00
2023-06-10T22:29:38.035Z,75.11
2023-06-10T22:32:06.099Z,74.88
2023-06-10T22:34:33.689Z,75.09
2023-06-10T22:37:02.100Z,76.07
2023-06-10T22:39:29.580Z,75.28
2023-06-10T22:41:57.319Z,74.63
2023-06-10T22:44:25.299Z,74.74
2023-06-10T22:46:53.416Z,73.70
2023-06-10T22:49:20.935Z,73.06
2023-06-10T22:51:49.870Z,72.80
2023-06-10T22:54:18.423Z,71.39
2023-06-10T22:56:46.142Z,72.19
2023-06-10T22:59:13.599Z,71.30
2023-06-10T23:01:41.284Z,71.00
2023-06-10T23:04:09.290Z,71.30
2023-06-10T23:06:37.354Z,70.37
2023-06-10T23:09:04.940Z,70.41
2023-06-10T23:11:32.959Z,70.39
2023-06-10T23:14:00.866Z,71.40
2023-06-10T23:16:29.593Z,71.55
2023-06-10T23:18:57.636Z,72.15
2023-06-10T23:21:29.826Z,72.56
2023-06-10T23:24:01.847Z,73.00
2023-06-10T23:26:30.296Z,73.36
2023-06-10T23:28:59.987Z,73.80
